createdAt,value
2023-04-22T00:01:54.943Z,100333.63
2023-04-22T00:04:26.078Z,100337.63
2023-04-22T00:06:54.563Z,100341.70
2023-04-22T00:09:24.104Z,100338.79
2023-04-22T00:11:52.899Z,100340.41
2023-04-22T00:14:21.980Z,100347.89
2023-04-22T00:16:50.736Z,100346.59
2023-04-22T00:19:19.737Z,100350.39
2023-04-22T00:21:48.006Z,100354.98
2023-04-22T00:24:16.382Z,100355.69
2023-04-22T00:26:45.576Z,100362.23
2023-04-22T00:29:14.363Z,100362.23
2023-04-22T00:31:42.746Z,100361.48
2023-04-22T00:34:11.139Z,100360.86
2023-04-22T00:36:40.049Z,100362.11
2023-04-22T00:39:09.592Z,100364.15
2023-04-22T00:41:39.049Z,100365.14
2023-04-22T00:44:11.633Z,100373.10
2023-04-22T00:46:40.262Z,100378.59
2023-04-22T00:49:09.075Z,100377.80
2023-04-22T00:51:38.055Z,100378.05
2023-04-22T00:54:06.868Z,100381.11
2023-04-22T00:56:37.501Z,100380.02
2023-04-22T00:59:06.809Z,100386.31
2023-04-22T01:01:35.186Z,100380.45
2023-04-22T01:04:04.205Z,100389.14
2023-04-22T01:06:33.135Z,100383.77
2023-04-22T01:09:01.664Z,100384.44
2023-04-22T01:11:30.285Z,100388.11
2023-04-22T01:14:00.573Z,100389.28
2023-04-22T01:16:31.390Z,100387.02
2023-04-22T01:19:00.163Z,100391.83
2023-04-22T01:21:29.905Z,100388.17
2023-04-22T01:23:58.242Z,100387.05
2023-04-22T01:26:26.596Z,100387.53
2023-04-22T01:28:55.233Z,100385.02
2023-04-22T01:31:23.844Z,100393.81
2023-04-22T01:33:52.153Z,100390.98
2023-04-22T01:36:20.568Z,100390.81
2023-04-22T01:38:49.463Z,100393.80
2023-04-22T01:41:18.109Z,100394.98
2023-04-22T01:43:46.477Z,100399.29
2023-04-22T01:46:16.664Z,100398.78
2023-04-22T01:48:52.732Z,100398.40
2023-04-22T01:51:23.858Z,100401.91
2023-04-22T01:53:52.265Z,100399.85
2023-04-22T01:56:20.671Z,100402.54
2023-04-22T01:58:50.192Z,100403.00
2023-04-22T02:01:18.554Z,100400.52
2023-04-22T02:03:47.133Z,100398.37
2023-04-22T02:06:15.715Z,100395.89
2023-04-22T02:08:44.091Z,100398.21
2023-04-22T02:11:14.792Z,100399.09
2023-04-22T02:13:43.560Z,100394.98
2023-04-22T02:16:12.136Z,100398.36
2023-04-22T02:18:40.684Z,100405.36
2023-04-22T02:21:09.929Z,100409.64
2023-04-22T02:23:38.673Z,100409.65
2023-04-22T02:26:07.515Z,100407.98
2023-04-22T02:28:38.029Z,100407.52
2023-04-22T02:31:06.404Z,100410.38
2023-04-22T02:33:35.016Z,100412.97
2023-04-22T02:36:03.620Z,100412.89
2023-04-22T02:38:32.311Z,100411.49
2023-04-22T02:41:00.784Z,100411.16
2023-04-22T02:43:29.581Z,100416.65
2023-04-22T02:45:58.356Z,100423.22
2023-04-22T02:48:26.784Z,100431.13
2023-04-22T02:50:55.165Z,100427.71
2023-04-22T02:53:23.693Z,100438.00
2023-04-22T02:55:52.788Z,100439.54
2023-04-22T02:58:22.389Z,100444.59
2023-04-22T03:00:50.768Z,100445.00
2023-04-22T03:03:20.228Z,100446.11
2023-04-22T03:05:48.851Z,100454.69
2023-04-22T03:08:19.752Z,100459.54
2023-04-22T03:10:48.689Z,100462.52
2023-04-22T03:13:17.263Z,100470.73
2023-04-22T03:15:46.160Z,100468.27
2023-04-22T03:18:16.803Z,100473.30
2023-04-22T03:20:45.723Z,100479.16
2023-04-22T03:23:14.632Z,100478.73
2023-04-22T03:25:44.782Z,100480.20
2023-04-22T03:28:13.587Z,100482.44
2023-04-22T03:30:42.119Z,100487.48
2023-04-22T03:33:11.890Z,100489.06
2023-04-22T03:35:44.870Z,100491.84
2023-04-22T03:38:13.356Z,100489.67
2023-04-22T03:40:44.109Z,100491.46
2023-04-22T03:43:20.419Z,100492.96
2023-04-22T03:45:59.818Z,100498.67
2023-04-22T03:48:35.611Z,100500.98
2023-04-22T03:51:06.411Z,100507.00
2023-04-22T03:53:37.138Z,100508.33
2023-04-22T03:56:05.748Z,100515.75
2023-04-22T03:58:36.479Z,100516.73
2023-04-22T04:01:06.929Z,100515.80
2023-04-22T04:03:36.219Z,100525.46
2023-04-22T04:06:05.388Z,100532.52
2023-04-22T04:08:37.816Z,100536.52
2023-04-22T04:11:06.338Z,100538.21
2023-04-22T04:13:35.316Z,100538.65
2023-04-22T04:16:26.820Z,100547.34
2023-04-22T04:19:00.798Z,100553.32
2023-04-22T04:21:29.870Z,100555.64
2023-04-22T04:23:58.321Z,100557.89
2023-04-22T04:26:29.128Z,100559.60
2023-04-22T04:29:06.494Z,100560.89
2023-04-22T04:31:35.709Z,100567.20
2023-04-22T04:34:05.876Z,100564.60
2023-04-22T04:36:34.634Z,100561.23
2023-04-22T04:39:12.693Z,100566.34
2023-04-22T04:41:41.762Z,100568.42
2023-04-22T04:44:10.695Z,100572.85
2023-04-22T04:46:41.490Z,100570.79
2023-04-22T04:49:13.089Z,100577.95
2023-04-22T04:51:52.870Z,100579.36
2023-04-22T04:54:21.386Z,100589.55
2023-04-22T04:56:50.310Z,100590.94
2023-04-22T04:59:19.050Z,100604.39
2023-04-22T05:01:47.548Z,100611.27
2023-04-22T05:04:16.620Z,100613.20
2023-04-22T05:06:46.683Z,100615.00
2023-04-22T05:09:15.452Z,100617.77
2023-04-22T05:11:44.527Z,100615.13
2023-04-22T05:14:17.451Z,100617.70
2023-04-22T05:16:48.365Z,100617.99
2023-04-22T05:19:18.673Z,100631.41
2023-04-22T05:21:47.890Z,100620.91
2023-04-22T05:24:16.800Z,100634.30
2023-04-22T05:26:46.180Z,100633.39
2023-04-22T05:29:18.530Z,100631.36
2023-04-22T05:31:47.797Z,100640.16
2023-04-22T05:34:16.412Z,100638.77
2023-04-22T05:36:45.078Z,100638.80
2023-04-22T05:39:16.020Z,100633.95
2023-04-22T05:41:47.061Z,100647.79
2023-04-22T05:44:17.762Z,100645.37
2023-04-22T05:46:49.148Z,100644.46
2023-04-22T05:49:18.498Z,100650.77
2023-04-22T05:52:07.204Z,100645.52
2023-04-22T05:54:43.988Z,100647.21
2023-04-22T05:57:13.027Z,100647.83
2023-04-22T05:59:41.856Z,100647.59
2023-04-22T06:02:11.849Z,100643.50
2023-04-22T06:04:44.857Z,100651.11
2023-04-22T06:07:15.866Z,100650.77
2023-04-22T06:09:48.503Z,100648.39
2023-04-22T06:12:20.416Z,100646.86
2023-04-22T06:14:51.200Z,100654.61
2023-04-22T06:17:20.597Z,100653.13
2023-04-22T06:19:49.306Z,100649.14
2023-04-22T06:22:17.921Z,100649.98
2023-04-22T06:24:48.113Z,100647.94
2023-04-22T06:27:19.621Z,100649.48
2023-04-22T06:29:48.861Z,100659.65
2023-04-22T06:32:17.647Z,100663.52
2023-04-22T06:34:59.153Z,100659.80
2023-04-22T06:37:28.350Z,100672.48
2023-04-22T06:40:14.246Z,100666.89
2023-04-22T06:46:09.307Z,100678.44
2023-04-22T06:49:04.896Z,100673.55
2023-04-22T06:51:55.179Z,100673.04
2023-04-22T06:54:25.709Z,100684.89
2023-04-22T06:56:58.555Z,100682.48
2023-04-22T06:59:27.613Z,100684.90
2023-04-22T07:01:56.434Z,100688.71
2023-04-22T07:04:25.161Z,100693.56
2023-04-22T07:06:53.779Z,100695.27
2023-04-22T07:09:22.586Z,100702.48
2023-04-22T07:11:52.931Z,100694.80
2023-04-22T07:14:23.355Z,100704.80
2023-04-22T07:17:13.593Z,100702.01
2023-04-22T07:19:42.251Z,100703.45
2023-04-22T07:22:11.546Z,100697.13
2023-04-22T07:24:41.239Z,100699.20
2023-04-22T07:27:12.559Z,100699.34
2023-04-22T07:29:42.178Z,100695.77
2023-04-22T07:32:11.625Z,100698.38
2023-04-22T07:34:43.122Z,100704.86
2023-04-22T07:37:13.248Z,100709.92
2023-04-22T07:39:54.807Z,100712.79
2023-04-22T07:42:24.863Z,100716.20
2023-04-22T07:44:53.410Z,100713.85
2023-04-22T07:47:22.426Z,100719.48
2023-04-22T07:49:51.064Z,100721.09
2023-04-22T07:52:23.581Z,100721.27
2023-04-22T07:54:57.464Z,100713.66
2023-04-22T07:57:33.425Z,100715.44
2023-04-22T08:00:15.444Z,100723.33
2023-04-22T08:02:44.417Z,100726.65
2023-04-22T08:05:14.281Z,100722.47
2023-04-22T08:07:45.081Z,100725.22
2023-04-22T08:10:13.670Z,100725.91
2023-04-22T08:12:42.320Z,100726.11
2023-04-22T08:15:10.924Z,100729.08
2023-04-22T08:17:39.469Z,100728.45
2023-04-22T08:20:09.431Z,100727.16
2023-04-22T08:22:39.062Z,100738.83
2023-04-22T08:25:08.035Z,100729.68
2023-04-22T08:27:38.604Z,100729.70
2023-04-22T08:30:07.663Z,100727.71
2023-04-22T08:32:39.088Z,100733.94
2023-04-22T08:35:09.494Z,100731.19
2023-04-22T08:37:40.945Z,100724.85
2023-04-22T08:40:09.828Z,100727.56
2023-04-22T08:42:38.350Z,100728.65
2023-04-22T08:45:07.004Z,100739.45
2023-04-22T08:47:37.659Z,100740.49
2023-04-22T08:50:12.502Z,100735.01
2023-04-22T08:52:44.817Z,100728.74
2023-04-22T08:55:13.242Z,100735.93
2023-04-22T08:57:41.599Z,100733.98
2023-04-22T09:00:10.380Z,100733.13
2023-04-22T09:02:39.066Z,100732.84
2023-04-22T09:05:07.707Z,100736.21
2023-04-22T09:07:36.688Z,100729.03
2023-04-22T09:10:05.848Z,100730.73
2023-04-22T09:12:34.644Z,100723.54
2023-04-22T09:15:05.093Z,100725.34
2023-04-22T09:17:34.884Z,100734.29
2023-04-22T09:20:05.124Z,100722.68
2023-04-22T09:22:42.305Z,100718.64
2023-04-22T09:25:18.651Z,100726.65
2023-04-22T09:27:54.678Z,100716.73
2023-04-22T09:30:31.352Z,100719.45
2023-04-22T09:33:04.702Z,100726.96
2023-04-22T09:35:41.206Z,100723.22
2023-04-22T09:38:11.535Z,100728.61
2023-04-22T09:40:44.384Z,100715.96
2023-04-22T09:43:12.979Z,100716.04
2023-04-22T09:45:42.924Z,100717.36
2023-04-22T09:48:16.769Z,100717.48
2023-04-22T09:50:47.005Z,100717.31
2023-04-22T09:53:17.390Z,100719.55
2023-04-22T09:55:50.929Z,100719.77
2023-04-22T09:58:20.896Z,100713.74
2023-04-22T10:00:54.722Z,100713.01
2023-04-22T10:03:23.254Z,100715.27
2023-04-22T10:05:51.795Z,100719.98
2023-04-22T10:08:20.498Z,100717.16
2023-04-22T10:10:49.652Z,100715.48
2023-04-22T10:13:18.200Z,100707.52
2023-04-22T10:15:52.176Z,100713.96
2023-04-22T10:18:26.243Z,100712.29
2023-04-22T10:20:55.077Z,100712.73
2023-04-22T10:23:24.403Z,100701.53
2023-04-22T10:25:56.918Z,100697.20
2023-04-22T10:28:28.646Z,100693.98
2023-04-22T10:30:57.581Z,100692.80
2023-04-22T10:33:36.719Z,100695.46
2023-04-22T10:36:18.193Z,100687.20
2023-04-22T10:38:58.505Z,100690.27
2023-04-22T10:41:31.129Z,100694.11
2023-04-22T10:44:01.340Z,100689.13
2023-04-22T10:46:40.818Z,100686.45
2023-04-22T10:49:13.653Z,100686.92
2023-04-22T10:51:42.815Z,100690.64
2023-04-22T10:54:28.755Z,100693.98
2023-04-22T10:57:03.789Z,100685.55
2023-04-22T10:59:42.246Z,100680.09
2023-04-22T11:02:12.143Z,100679.49
2023-04-22T11:04:40.482Z,100677.86
2023-04-22T11:07:20.612Z,100676.63
2023-04-22T11:10:05.686Z,100675.27
2023-04-22T11:12:42.271Z,100672.44
2023-04-22T11:15:18.065Z,100675.74
2023-04-22T11:17:47.823Z,100664.36
2023-04-22T11:20:19.066Z,100671.08
2023-04-22T11:22:55.308Z,100673.82
2023-04-22T11:25:25.560Z,100673.56
2023-04-22T11:27:56.882Z,100671.66
2023-04-22T11:30:26.447Z,100676.42
2023-04-22T11:32:56.301Z,100683.02
2023-04-22T11:35:30.040Z,100676.77
2023-04-22T11:38:03.156Z,100673.38
2023-04-22T11:40:42.080Z,100671.06
2023-04-22T11:43:12.798Z,100665.32
2023-04-22T11:45:41.503Z,100668.64
2023-04-22T11:48:11.922Z,100674.24
2023-04-22T11:50:41.867Z,100670.92
2023-04-22T11:53:17.955Z,100661.20
2023-04-22T11:55:47.387Z,100657.36
2023-04-22T11:58:27.445Z,100652.66
2023-04-22T12:00:56.716Z,100646.11
2023-04-22T12:03:29.536Z,100654.92
2023-04-22T12:06:00.805Z,100654.96
2023-04-22T12:08:37.793Z,100645.48
2023-04-22T12:11:07.581Z,100639.04
2023-04-22T12:13:42.955Z,100633.73
2023-04-22T12:16:22.325Z,100626.91
2023-04-22T12:18:52.891Z,100626.39
2023-04-22T12:21:24.107Z,100626.98
2023-04-22T12:23:59.072Z,100622.10
2023-04-22T12:26:27.924Z,100644.55
2023-04-22T12:29:00.458Z,100644.61
2023-04-22T12:31:31.428Z,100638.61
2023-04-22T12:34:00.515Z,100636.31
2023-04-22T12:36:29.608Z,100642.93
2023-04-22T12:38:58.064Z,100648.92
2023-04-22T12:41:27.798Z,100650.10
2023-04-22T12:43:57.219Z,100650.02
2023-04-22T12:46:25.701Z,100666.00
2023-04-22T12:48:54.462Z,100674.11
2023-04-22T12:51:23.674Z,100672.69
2023-04-22T12:53:52.020Z,100679.69
2023-04-22T12:56:21.821Z,100691.59
2023-04-22T12:58:50.896Z,100704.19
2023-04-22T13:01:19.518Z,100716.70
2023-04-22T13:03:53.308Z,100714.05
2023-04-22T13:06:26.206Z,100729.81
2023-04-22T13:08:55.784Z,100739.17
2023-04-22T13:11:25.000Z,100750.06
2023-04-22T13:13:57.050Z,100751.36
2023-04-22T13:16:27.044Z,100753.02
2023-04-22T13:18:55.393Z,100757.48
2023-04-22T13:21:23.751Z,100758.30
2023-04-22T13:23:54.109Z,100760.48
2023-04-22T13:26:23.317Z,100758.60
2023-04-22T13:28:52.708Z,100760.36
2023-04-22T13:31:21.998Z,100770.67
2023-04-22T13:33:50.345Z,100779.02
2023-04-22T13:36:18.861Z,100776.14
2023-04-22T13:38:50.882Z,100778.52
2023-04-22T13:41:20.041Z,100779.80
2023-04-22T13:43:54.981Z,100773.06
2023-04-22T13:46:25.132Z,100777.95
2023-04-22T13:48:57.621Z,100783.67
2023-04-22T13:51:27.759Z,100787.01
2023-04-22T13:53:56.410Z,100796.88
2023-04-22T13:56:31.263Z,100798.35
2023-04-22T13:59:00.854Z,100796.66
2023-04-22T14:01:33.298Z,100787.30
2023-04-22T14:04:05.717Z,100780.27
2023-04-22T14:06:35.451Z,100778.23
2023-04-22T14:09:05.005Z,100777.38
2023-04-22T14:11:35.129Z,100779.42
2023-04-22T14:14:03.656Z,100772.56
2023-04-22T14:16:33.249Z,100775.40
2023-04-22T14:19:03.385Z,100770.52
2023-04-22T14:21:34.666Z,100766.66
2023-04-22T14:24:06.682Z,100770.33
2023-04-22T14:26:36.183Z,100770.79
2023-04-22T14:29:10.549Z,100773.53
2023-04-22T14:31:42.332Z,100775.58
2023-04-22T14:34:11.192Z,100779.75
2023-04-22T14:37:03.913Z,100782.23
2023-04-22T14:39:32.727Z,100784.09
2023-04-22T14:42:02.921Z,100785.31
2023-04-22T14:44:31.519Z,100792.94
2023-04-22T14:47:02.518Z,100797.22
2023-04-22T14:49:33.326Z,100807.25
2023-04-22T14:52:08.694Z,100808.48
2023-04-22T14:55:19.621Z,100814.58
2023-04-22T14:57:56.940Z,100813.39
2023-04-22T15:00:26.063Z,100805.33
2023-04-22T15:02:57.461Z,100802.92
2023-04-22T15:05:26.544Z,100802.95
2023-04-22T15:07:58.022Z,100798.20
2023-04-22T15:10:26.968Z,100786.33
2023-04-22T15:12:56.971Z,100777.23
2023-04-22T15:15:25.419Z,100779.46
2023-04-22T15:17:54.066Z,100781.56
2023-04-22T15:20:22.914Z,100780.91
2023-04-22T15:22:52.344Z,100777.84
2023-04-22T15:25:21.208Z,100785.40
2023-04-22T15:27:49.969Z,100781.58
2023-04-22T15:30:18.661Z,100783.36
2023-04-22T15:32:47.717Z,100783.08
2023-04-22T15:35:16.662Z,100781.91
2023-04-22T15:37:48.224Z,100779.00
2023-04-22T15:40:16.857Z,100781.83
2023-04-22T15:42:45.836Z,100780.75
2023-04-22T15:45:14.387Z,100782.98
2023-04-22T15:47:45.049Z,100779.92
2023-04-22T15:50:13.564Z,100784.07
2023-04-22T15:52:43.326Z,100783.30
2023-04-22T15:55:14.490Z,100787.06
2023-04-22T15:57:47.262Z,100790.95
2023-04-22T16:00:16.717Z,100791.09
2023-04-22T16:02:45.533Z,100790.84
2023-04-22T16:05:15.039Z,100792.11
2023-04-22T16:07:45.540Z,100796.98
2023-04-22T16:10:15.338Z,100798.11
2023-04-22T16:12:45.886Z,100805.15
2023-04-22T16:15:16.831Z,100806.67
2023-04-22T16:17:45.403Z,100804.87
2023-04-22T16:20:35.465Z,100804.80
2023-04-22T16:35:16.176Z,100805.69
2023-04-22T16:37:47.562Z,100806.87
2023-04-22T16:40:15.652Z,100803.43
2023-04-22T16:42:44.866Z,100804.84
2023-04-22T16:45:13.647Z,100812.55
2023-04-22T16:48:04.902Z,100818.67
2023-04-22T16:50:49.245Z,100815.75
2023-04-22T16:53:18.429Z,100819.42
2023-04-22T16:55:45.951Z,100823.90
2023-04-22T16:58:14.828Z,100828.60
2023-04-22T17:00:41.875Z,100831.26
2023-04-22T17:03:12.080Z,100836.10
2023-04-22T17:05:39.341Z,100837.83
2023-04-22T17:08:07.827Z,100841.88
2023-04-22T17:10:44.558Z,100840.75
2023-04-22T17:13:16.900Z,100847.44
2023-04-22T17:15:46.460Z,100846.10
2023-04-22T17:18:16.498Z,100846.82
2023-04-22T17:20:52.536Z,100850.95
2023-04-22T17:23:26.591Z,100848.77
2023-04-22T17:25:57.317Z,100851.73
2023-04-22T17:28:24.773Z,100854.77
2023-04-22T17:30:54.932Z,100858.59
2023-04-22T17:33:22.248Z,100857.30
2023-04-22T17:35:49.381Z,100862.80
2023-04-22T17:38:20.023Z,100870.61
2023-04-22T17:40:48.232Z,100871.08
2023-04-22T17:43:15.436Z,100879.92
2023-04-22T17:45:43.647Z,100885.28
2023-04-22T17:48:10.680Z,100887.17
2023-04-22T17:50:41.139Z,100892.90
2023-04-22T17:53:10.326Z,100895.61
2023-04-22T17:55:38.637Z,100903.20
2023-04-22T17:58:06.104Z,100903.67
2023-04-22T18:00:58.165Z,100909.29
2023-04-22T18:03:32.965Z,100914.61
2023-04-22T18:06:00.503Z,100915.66
2023-04-22T18:08:28.677Z,100918.21
2023-04-22T18:10:56.746Z,100920.23
2023-04-22T18:13:24.020Z,100919.89
2023-04-22T18:15:51.098Z,100920.16
2023-04-22T18:18:24.651Z,100924.75
2023-04-22T18:20:53.475Z,100927.58
2023-04-22T18:23:21.669Z,100925.16
2023-04-22T18:25:50.966Z,100927.91
2023-04-22T18:28:17.987Z,100927.27
2023-04-22T18:30:48.210Z,100930.48
2023-04-22T18:33:18.982Z,100930.47
2023-04-22T18:35:47.812Z,100933.33
2023-04-22T18:38:17.643Z,100934.95
2023-04-22T18:40:46.007Z,100931.85
2023-04-22T18:43:13.711Z,100934.72
2023-04-22T18:45:41.330Z,100930.81
2023-04-22T18:48:18.858Z,100935.99
2023-04-22T18:50:48.520Z,100932.38
2023-04-22T18:53:15.937Z,100931.55
2023-04-22T18:55:45.224Z,100932.96
2023-04-22T18:58:14.881Z,100936.23
2023-04-22T19:00:43.285Z,100931.27
2023-04-22T19:03:10.814Z,100929.02
2023-04-22T19:05:38.550Z,100929.94
2023-04-22T19:08:07.514Z,100933.52
2023-04-22T19:10:34.513Z,100936.42
2023-04-22T19:13:01.698Z,100935.44
2023-04-22T19:15:29.061Z,100937.06
2023-04-22T19:18:00.086Z,100938.00
2023-04-22T19:20:29.200Z,100936.69
2023-04-22T19:23:17.370Z,100940.53
2023-04-22T19:25:45.558Z,100944.15
2023-04-22T19:28:12.899Z,100946.48
2023-04-22T19:30:41.522Z,100946.09
2023-04-22T19:33:09.619Z,100950.79
2023-04-22T19:35:37.012Z,100950.95
2023-04-22T19:38:04.230Z,100953.51
2023-04-22T19:40:32.767Z,100955.34
2023-04-22T19:43:00.331Z,100954.35
2023-04-22T19:45:29.522Z,100954.55
2023-04-22T19:47:57.140Z,100953.38
2023-04-22T19:50:24.606Z,100950.78
2023-04-22T19:52:52.655Z,100951.66
2023-04-22T19:55:19.653Z,100950.66
2023-04-22T19:57:46.543Z,100950.29
2023-04-22T20:00:15.197Z,100949.80
2023-04-22T20:02:42.606Z,100949.39
2023-04-22T20:05:10.721Z,100948.86
2023-04-22T20:07:39.220Z,100948.77
2023-04-22T20:10:07.420Z,100942.55
2023-04-22T20:12:38.102Z,100944.42
2023-04-22T20:15:06.274Z,100943.93
2023-04-22T20:17:39.219Z,100941.23
2023-04-22T20:20:12.530Z,100947.61
2023-04-22T20:22:43.162Z,100945.77
2023-04-22T20:25:17.209Z,100944.07
2023-04-22T20:27:44.786Z,100947.46
2023-04-22T20:30:16.921Z,100946.47
2023-04-22T20:32:44.154Z,100950.14
2023-04-22T20:35:14.510Z,100951.79
2023-04-22T20:37:41.685Z,100956.41
2023-04-22T20:40:09.085Z,100959.31
2023-04-22T20:42:37.134Z,100961.11
2023-04-22T20:45:09.157Z,100961.21
2023-04-22T20:47:37.472Z,100962.53
2023-04-22T20:50:08.617Z,100963.31
2023-04-22T20:52:36.049Z,100965.73
2023-04-22T20:55:03.268Z,100968.34
2023-04-22T20:57:31.609Z,100970.23
2023-04-22T20:59:59.157Z,100967.11
2023-04-22T21:02:29.444Z,100968.79
2023-04-22T21:04:57.123Z,100967.73
2023-04-22T21:07:30.230Z,100968.44
2023-04-22T21:09:57.713Z,100972.59
2023-04-22T21:12:25.649Z,100972.17
2023-04-22T21:14:53.361Z,100975.42
2023-04-22T21:17:52.098Z,100977.34
2023-04-22T21:20:19.367Z,100977.56
2023-04-22T21:23:10.341Z,100977.15
2023-04-22T21:25:37.355Z,100980.04
2023-04-22T21:28:04.748Z,100983.91
2023-04-22T21:30:32.242Z,100979.33
2023-04-22T21:32:59.174Z,100982.91
2023-04-22T21:35:29.563Z,100981.25
2023-04-22T21:37:56.957Z,100984.72
2023-04-22T21:40:24.036Z,100984.66
2023-04-22T21:42:52.778Z,100978.93
2023-04-22T21:45:19.960Z,100978.16
2023-04-22T21:47:47.444Z,100979.88
2023-04-22T21:50:14.773Z,100976.84
2023-04-22T21:52:42.061Z,100978.73
2023-04-22T21:55:09.759Z,100975.83
2023-04-22T21:57:38.418Z,100970.86
2023-04-22T22:00:09.544Z,100969.60
2023-04-22T22:02:38.238Z,100968.27
2023-04-22T22:05:07.225Z,100966.09
2023-04-22T22:07:34.243Z,100962.37
2023-04-22T22:10:01.606Z,100961.19
2023-04-22T22:12:31.718Z,100959.71
2023-04-22T22:21:12.730Z,100963.64
2023-04-22T22:23:41.785Z,100966.12
2023-04-22T22:26:14.404Z,100962.20
2023-04-22T22:29:17.660Z,100963.56
2023-04-22T22:31:49.869Z,100960.36
2023-04-22T22:34:23.811Z,100958.02
2023-04-22T22:37:00.850Z,100959.65
2023-04-22T22:39:28.509Z,100958.84
2023-04-22T22:41:55.387Z,100957.73
2023-04-22T22:44:22.407Z,100961.63
2023-04-22T22:46:49.256Z,100956.95
2023-04-22T22:49:16.517Z,100957.02
2023-04-22T22:51:43.628Z,100959.09
2023-04-22T22:54:10.710Z,100957.33
2023-04-22T22:56:37.683Z,100957.99
2023-04-22T22:59:04.693Z,100959.10
2023-04-22T23:01:31.748Z,100955.05
2023-04-22T23:03:59.204Z,100954.83
2023-04-22T23:06:26.709Z,100958.77
2023-04-22T23:08:53.848Z,100960.80
2023-04-22T23:11:20.780Z,100964.04
2023-04-22T23:13:47.715Z,100962.52
2023-04-22T23:16:15.086Z,100961.05
2023-04-22T23:18:42.813Z,100964.84
2023-04-22T23:21:09.925Z,100962.13
2023-04-22T23:23:37.509Z,100960.64
2023-04-22T23:26:05.147Z,100967.42
2023-04-22T23:28:32.668Z,100962.19
2023-04-22T23:30:59.856Z,100970.58
2023-04-22T23:33:28.490Z,100969.84
2023-04-22T23:35:56.585Z,100972.23
2023-04-22T23:38:23.877Z,100973.02
2023-04-22T23:40:50.734Z,100968.15
2023-04-22T23:43:17.611Z,100973.55
2023-04-22T23:45:44.700Z,100972.34
2023-04-22T23:48:11.841Z,100977.42
2023-04-22T23:50:39.178Z,100981.14
2023-04-22T23:53:06.104Z,100980.70
2023-04-22T23:55:34.060Z,100979.52
2023-04-22T23:58:01.638Z,100983.60
